createdAt,value
2018-07-24T00:01:05.659Z,79.43
2018-07-24T00:03:35.059Z,79.27
2018-07-24T00:06:04.182Z,79.42
2018-07-24T00:08:33.628Z,79.33
2018-07-24T00:11:03.137Z,79.29
2018-07-24T00:13:32.488Z,79.63
2018-07-24T00:16:01.877Z,80.23
2018-07-24T00:18:31.255Z,79.86
2018-07-24T00:21:00.378Z,80.37
2018-07-24T00:23:29.752Z,79.28
2018-07-24T00:25:58.883Z,79.82
2018-07-24T00:28:28.260Z,80.00
2018-07-24T00:30:57.382Z,80.39
2018-07-24T00:33:26.767Z,79.76
2018-07-24T00:35:56.149Z,80.75
2018-07-24T00:38:25.265Z,80.46
2018-07-24T00:40:54.764Z,80.42
2018-07-24T00:43:24.143Z,80.40
2018-07-24T00:45:53.535Z,80.59
2018-07-24T00:48:22.915Z,80.89
2018-07-24T00:50:52.295Z,80.56
2018-07-24T00:53:21.755Z,80.47
2018-07-24T00:55:51.200Z,80.45
2018-07-24T00:58:20.623Z,80.17
2018-07-24T01:00:50.015Z,80.13
2018-07-24T01:03:19.412Z,81.08
2018-07-24T01:05:48.803Z,80.87
2018-07-24T01:08:18.179Z,80.71
2018-07-24T01:10:47.310Z,80.07
2018-07-24T01:13:16.689Z,80.03
2018-07-24T01:15:46.061Z,79.87
2018-07-24T01:18:15.436Z,80.82
2018-07-24T01:20:44.925Z,80.96
2018-07-24T01:23:14.302Z,80.56
2018-07-24T01:25:43.687Z,80.72
2018-07-24T01:28:12.813Z,80.92
2018-07-24T01:30:42.194Z,80.75
2018-07-24T01:33:11.583Z,81.58
2018-07-24T01:35:40.972Z,81.63
2018-07-24T01:38:10.108Z,81.09
2018-07-24T01:40:39.467Z,81.50
2018-07-24T01:43:08.849Z,81.39
2018-07-24T01:45:38.353Z,81.65
2018-07-24T01:48:07.823Z,81.18
2018-07-24T01:50:37.201Z,80.92
2018-07-24T01:53:06.617Z,80.82
2018-07-24T01:55:36.020Z,80.79
2018-07-24T01:58:05.146Z,81.52
2018-07-24T02:00:34.532Z,81.08
2018-07-24T02:03:03.935Z,80.81
2018-07-24T02:05:33.320Z,81.56
2018-07-24T02:08:02.697Z,80.93
2018-07-24T02:10:31.822Z,79.82
2018-07-24T02:13:01.207Z,81.79
2018-07-24T02:15:30.582Z,82.56
2018-07-24T02:17:59.976Z,81.84
2018-07-24T02:20:29.369Z,82.21
2018-07-24T02:22:58.743Z,81.99
2018-07-24T02:25:28.108Z,82.44
2018-07-24T02:27:57.223Z,82.68
2018-07-24T02:30:26.616Z,82.67
2018-07-24T02:32:56.001Z,82.22
2018-07-24T02:35:25.383Z,82.45
2018-07-24T02:37:54.799Z,81.67
2018-07-24T02:40:24.184Z,82.84
2018-07-24T02:42:53.626Z,81.63
2018-07-24T02:45:23.018Z,82.00
2018-07-24T02:47:52.434Z,82.00
2018-07-24T02:50:21.834Z,81.42
2018-07-24T02:52:51.199Z,81.86
2018-07-24T02:55:20.584Z,81.70
2018-07-24T02:57:49.883Z,81.75
2018-07-24T03:00:19.211Z,81.87
2018-07-24T03:02:48.519Z,82.06
2018-07-24T03:05:17.601Z,81.29
2018-07-24T03:07:46.892Z,81.45
2018-07-24T03:10:16.229Z,81.94
2018-07-24T03:12:45.297Z,82.35
2018-07-24T03:15:14.599Z,81.71
2018-07-24T03:17:43.910Z,81.76
2018-07-24T03:20:13.216Z,81.90
2018-07-24T03:22:42.281Z,81.77
2018-07-24T03:25:11.607Z,82.43
2018-07-24T03:27:40.922Z,82.69
2018-07-24T03:30:10.243Z,82.71
2018-07-24T03:32:39.565Z,82.19
2018-07-24T03:35:08.867Z,82.36
2018-07-24T03:37:38.183Z,83.50
2018-07-24T03:40:08.550Z,83.34
2018-07-24T03:42:37.874Z,83.93
2018-07-24T03:45:07.265Z,83.52
2018-07-24T03:47:36.528Z,83.60
2018-07-24T03:50:05.635Z,83.74
2018-07-24T03:52:34.955Z,83.51
2018-07-24T03:55:04.277Z,83.58
2018-07-24T03:57:33.589Z,82.98
2018-07-24T04:00:02.911Z,82.61
2018-07-24T04:02:32.223Z,82.86
2018-07-24T04:05:01.291Z,82.13
2018-07-24T04:07:30.600Z,82.23
2018-07-24T04:09:59.919Z,82.09
2018-07-24T04:12:28.995Z,82.19
2018-07-24T04:14:58.317Z,81.98
2018-07-24T04:17:27.405Z,82.24
2018-07-24T04:19:56.488Z,82.42
2018-07-24T04:22:25.791Z,83.05
2018-07-24T04:24:55.118Z,82.95
2018-07-24T04:27:24.439Z,82.97
2018-07-24T04:29:53.782Z,83.55
2018-07-24T04:32:23.110Z,83.96
2018-07-24T04:34:52.199Z,83.67
2018-07-24T04:37:21.255Z,83.99
2018-07-24T04:39:50.617Z,83.51
2018-07-24T04:42:19.911Z,84.07
2018-07-24T04:44:49.382Z,84.36
2018-07-24T04:47:18.687Z,84.78
2018-07-24T04:49:48.025Z,84.79
2018-07-24T04:52:17.363Z,85.16
2018-07-24T04:54:46.687Z,85.85
2018-07-24T04:57:16.042Z,84.81
2018-07-24T04:59:45.395Z,85.71
2018-07-24T05:02:14.742Z,84.52
2018-07-24T05:04:44.101Z,84.80
2018-07-24T05:07:13.462Z,84.65
2018-07-24T05:09:42.802Z,85.50
2018-07-24T05:12:12.151Z,85.72
2018-07-24T05:14:41.490Z,86.44
2018-07-24T05:17:10.940Z,86.29
2018-07-24T05:19:40.327Z,85.55
2018-07-24T05:22:09.639Z,85.44
2018-07-24T05:24:38.993Z,86.25
2018-07-24T05:27:08.685Z,86.06
2018-07-24T05:29:38.031Z,85.64
2018-07-24T05:32:09.089Z,85.36
2018-07-24T05:34:38.423Z,85.43
2018-07-24T05:37:07.759Z,85.08
2018-07-24T05:39:36.838Z,84.90
2018-07-24T05:42:06.228Z,84.09
2018-07-24T05:44:35.567Z,83.69
2018-07-24T05:47:05.116Z,83.10
2018-07-24T05:49:34.446Z,83.00
2018-07-24T05:52:03.811Z,81.88
2018-07-24T05:54:33.154Z,81.70
2018-07-24T05:57:02.502Z,81.73
2018-07-24T05:59:31.846Z,81.26
2018-07-24T06:02:01.216Z,80.26
2018-07-24T06:04:30.501Z,81.07
2018-07-24T06:06:59.848Z,80.72
2018-07-24T06:09:29.155Z,79.69
2018-07-24T06:11:58.472Z,79.42
2018-07-24T06:14:27.594Z,79.94
2018-07-24T06:16:56.897Z,80.35
2018-07-24T06:19:26.223Z,80.51
2018-07-24T06:21:55.652Z,79.88
2018-07-24T06:24:25.086Z,80.08
2018-07-24T06:26:54.422Z,79.30
2018-07-24T06:29:23.918Z,79.73
2018-07-24T06:31:53.169Z,79.66
2018-07-24T06:34:22.491Z,79.99
2018-07-24T06:36:51.810Z,79.34
2018-07-24T06:39:21.122Z,79.26
2018-07-24T06:41:50.442Z,78.10
2018-07-24T06:44:19.837Z,78.06
2018-07-24T06:46:49.084Z,78.42
2018-07-24T06:49:18.156Z,77.38
2018-07-24T06:51:47.548Z,78.13
2018-07-24T06:54:16.563Z,77.71
2018-07-24T06:56:45.634Z,77.11
2018-07-24T06:59:14.948Z,76.74
2018-07-24T07:01:44.279Z,76.38
2018-07-24T07:04:13.595Z,76.01
2018-07-24T07:06:42.906Z,75.40
2018-07-24T07:09:12.272Z,75.42
2018-07-24T07:11:41.358Z,74.61
2018-07-24T07:14:10.446Z,74.49
2018-07-24T07:16:39.763Z,72.98
2018-07-24T07:19:08.838Z,72.88
2018-07-24T07:21:38.155Z,72.19
2018-07-24T07:24:08.494Z,72.52
2018-07-24T07:26:37.839Z,71.71
2018-07-24T07:29:07.215Z,71.40
2018-07-24T07:31:36.487Z,71.53
2018-07-24T07:34:05.631Z,70.55
2018-07-24T07:36:34.934Z,69.05
2018-07-24T07:39:06.166Z,68.91
2018-07-24T07:41:35.492Z,69.15
2018-07-24T07:44:04.833Z,69.07
2018-07-24T07:46:34.140Z,67.47
2018-07-24T07:49:03.571Z,66.45
2018-07-24T07:51:33.019Z,66.08
2018-07-24T07:54:02.339Z,65.04
2018-07-24T07:56:31.638Z,64.89
2018-07-24T07:59:00.991Z,63.59
2018-07-24T08:01:30.340Z,63.58
2018-07-24T08:03:59.774Z,63.18
2018-07-24T08:06:29.092Z,63.21
2018-07-24T08:08:58.463Z,62.95
2018-07-24T08:11:27.807Z,62.72
2018-07-24T08:13:56.936Z,61.15
2018-07-24T08:16:26.284Z,61.63
2018-07-24T08:18:55.648Z,61.33
2018-07-24T08:21:25.005Z,60.91
2018-07-24T08:23:54.376Z,59.80
2018-07-24T08:26:23.736Z,60.29
2018-07-24T08:28:52.847Z,60.79
2018-07-24T08:31:22.224Z,58.35
2018-07-24T08:33:51.584Z,59.94
2018-07-24T08:36:20.938Z,58.40
2018-07-24T08:38:50.321Z,57.63
2018-07-24T08:41:19.675Z,59.12
2018-07-24T08:43:49.037Z,57.96
2018-07-24T08:46:18.144Z,58.71
2018-07-24T08:48:47.591Z,57.78
2018-07-24T08:51:16.889Z,58.21
2018-07-24T08:53:46.752Z,57.73
2018-07-24T08:56:15.708Z,56.61
2018-07-24T08:58:45.068Z,56.18
2018-07-24T09:01:14.459Z,56.61
2018-07-24T09:03:43.835Z,56.50
2018-07-24T09:06:13.215Z,56.75
2018-07-24T09:08:42.555Z,56.33
2018-07-24T09:11:11.929Z,56.10
2018-07-24T09:13:41.275Z,56.67
2018-07-24T09:16:10.654Z,57.45
2018-07-24T09:18:39.755Z,56.76
2018-07-24T09:21:09.215Z,55.37
2018-07-24T09:23:38.875Z,56.11
2018-07-24T09:26:08.948Z,55.82
2018-07-24T09:28:38.337Z,55.74
2018-07-24T09:31:07.807Z,54.89
2018-07-24T09:33:37.156Z,54.20
2018-07-24T09:36:06.545Z,53.43
2018-07-24T09:38:35.891Z,53.61
2018-07-24T09:41:05.252Z,53.81
2018-07-24T09:43:34.620Z,51.59
2018-07-24T09:46:03.995Z,52.72
2018-07-24T09:48:33.096Z,53.09
2018-07-24T09:51:02.476Z,53.44
2018-07-24T09:53:31.829Z,54.19
2018-07-24T09:56:01.193Z,53.41
2018-07-24T09:58:30.556Z,53.36
2018-07-24T10:01:05.209Z,52.26
2018-07-24T10:03:34.743Z,52.21
2018-07-24T10:06:04.098Z,51.37
2018-07-24T10:08:33.459Z,49.22
2018-07-24T10:11:02.882Z,49.94
2018-07-24T10:13:31.939Z,49.68
2018-07-24T10:16:01.322Z,50.54
2018-07-24T10:18:30.415Z,50.74
2018-07-24T10:20:59.684Z,50.82
2018-07-24T10:23:29.040Z,51.33
2018-07-24T10:25:58.406Z,51.05
2018-07-24T10:28:27.829Z,51.08
2018-07-24T10:30:57.227Z,50.64
2018-07-24T10:33:26.595Z,51.88
2018-07-24T10:35:56.110Z,51.69
2018-07-24T10:38:25.457Z,49.88
2018-07-24T10:40:54.811Z,49.23
2018-07-24T10:43:24.164Z,49.88
2018-07-24T10:45:53.536Z,48.17
2018-07-24T10:48:22.633Z,47.53
2018-07-24T10:50:52.015Z,47.81
2018-07-24T10:53:21.346Z,47.74
2018-07-24T10:55:50.689Z,45.79
2018-07-24T10:58:20.017Z,46.83
2018-07-24T11:00:49.359Z,47.84
2018-07-24T11:03:18.700Z,48.27
2018-07-24T11:05:48.058Z,48.10
2018-07-24T11:08:17.421Z,47.77
2018-07-24T11:10:46.745Z,47.19
2018-07-24T11:13:16.081Z,46.87
2018-07-24T11:15:45.432Z,47.41
2018-07-24T11:18:14.534Z,46.93
2018-07-24T11:20:43.886Z,46.57
2018-07-24T11:23:13.380Z,45.50
2018-07-24T11:25:42.560Z,46.10
2018-07-24T11:28:11.915Z,48.20
2018-07-24T11:30:41.235Z,50.04
2018-07-24T11:33:10.420Z,44.22
2018-07-24T11:35:39.729Z,49.03
2018-07-24T11:38:08.991Z,45.43
2018-07-24T11:40:38.313Z,46.74
2018-07-24T11:43:07.667Z,46.02
2018-07-24T11:45:37.016Z,47.17
2018-07-24T11:48:06.339Z,44.95
2018-07-24T11:50:35.668Z,44.46
2018-07-24T11:53:05.039Z,45.55
2018-07-24T11:55:34.126Z,44.62
2018-07-24T11:58:03.222Z,43.48
2018-07-24T12:00:32.299Z,45.21
2018-07-24T12:03:01.620Z,43.01
2018-07-24T12:05:30.727Z,36.58
2018-07-24T12:08:00.128Z,37.38
2018-07-24T12:10:29.407Z,41.25
2018-07-24T12:12:58.761Z,41.85
2018-07-24T12:15:28.072Z,41.40
2018-07-24T12:17:57.422Z,41.10
2018-07-24T12:20:26.750Z,41.08
2018-07-24T12:22:56.113Z,41.89
2018-07-24T12:25:25.200Z,39.18
2018-07-24T12:27:54.564Z,36.33
2018-07-24T12:30:23.885Z,37.86
2018-07-24T12:32:53.350Z,38.63
2018-07-24T12:35:22.676Z,38.43
2018-07-24T12:37:51.998Z,38.15
2018-07-24T12:40:21.302Z,38.21
2018-07-24T12:42:50.631Z,38.35
2018-07-24T12:45:20.008Z,40.35
2018-07-24T12:47:49.340Z,38.22
2018-07-24T12:50:18.696Z,37.53
2018-07-24T12:52:48.059Z,38.64
2018-07-24T12:55:17.353Z,35.35
2018-07-24T12:57:46.679Z,37.91
2018-07-24T13:00:16.004Z,37.37
2018-07-24T13:02:45.328Z,37.45
2018-07-24T13:05:14.456Z,36.23
2018-07-24T13:07:43.804Z,36.09
2018-07-24T13:10:13.208Z,36.17
2018-07-24T13:12:42.517Z,36.85
2018-07-24T13:15:11.839Z,35.46
2018-07-24T13:17:41.160Z,35.67
2018-07-24T13:20:10.487Z,34.48
2018-07-24T13:22:39.821Z,36.19
2018-07-24T13:25:08.899Z,34.01
2018-07-24T13:27:38.206Z,36.56
2018-07-24T13:30:07.547Z,33.37
2018-07-24T13:32:37.247Z,34.59
2018-07-24T13:35:06.871Z,35.88
2018-07-24T13:37:36.236Z,35.63
2018-07-24T13:40:05.801Z,33.92
2018-07-24T13:42:35.113Z,34.24
2018-07-24T13:45:04.790Z,35.66
2018-07-24T13:47:34.106Z,36.42
2018-07-24T13:50:03.457Z,30.71
2018-07-24T13:52:32.529Z,32.71
2018-07-24T13:55:01.885Z,32.85
2018-07-24T13:57:31.207Z,31.30
2018-07-24T14:00:00.570Z,31.57
2018-07-24T14:02:29.937Z,32.53
2018-07-24T14:04:59.296Z,31.79
2018-07-24T14:07:28.664Z,30.14
2018-07-24T14:09:57.771Z,29.93
2018-07-24T14:12:27.144Z,31.32
2018-07-24T14:14:56.271Z,29.93
2018-07-24T14:17:25.693Z,29.91
2018-07-24T14:19:55.068Z,29.36
2018-07-24T14:22:24.419Z,30.50
2018-07-24T14:24:53.796Z,29.66
2018-07-24T14:27:23.163Z,29.49
2018-07-24T14:29:53.134Z,27.82
2018-07-24T14:32:22.557Z,27.10
2018-07-24T14:34:51.921Z,28.47
2018-07-24T14:37:21.264Z,28.96
2018-07-24T14:39:50.627Z,27.78
2018-07-24T14:42:19.987Z,26.80
2018-07-24T14:44:49.340Z,28.29
2018-07-24T14:47:18.683Z,28.18
2018-07-24T14:49:47.798Z,29.48
2018-07-24T14:52:17.143Z,30.26
2018-07-24T14:54:46.513Z,29.84
2018-07-24T14:57:15.866Z,30.12
2018-07-24T14:59:45.198Z,30.95
2018-07-24T15:02:14.523Z,30.81
2018-07-24T15:04:43.890Z,30.03
2018-07-24T15:07:13.186Z,31.46
2018-07-24T15:09:42.282Z,30.60
2018-07-24T15:12:11.609Z,29.67
2018-07-24T15:14:40.947Z,28.92
2018-07-24T15:17:10.358Z,30.13
2018-07-24T15:19:39.663Z,27.19
2018-07-24T15:22:09.057Z,28.01
2018-07-24T15:24:38.362Z,28.92
2018-07-24T15:27:07.687Z,29.00
2018-07-24T15:29:36.767Z,29.45
2018-07-24T15:34:38.956Z,29.25
2018-07-24T15:37:08.148Z,29.35
2018-07-24T15:39:37.475Z,30.17
2018-07-24T15:42:07.232Z,30.03
2018-07-24T15:44:36.551Z,29.91
2018-07-24T15:47:05.908Z,29.86
2018-07-24T15:49:35.220Z,28.78
2018-07-24T15:52:04.611Z,28.17
2018-07-24T15:54:33.648Z,28.88
2018-07-24T15:57:03.008Z,27.57
2018-07-24T15:59:32.328Z,28.42
2018-07-24T16:02:01.764Z,29.14
2018-07-24T16:04:30.872Z,29.17
2018-07-24T16:07:00.264Z,30.16
2018-07-24T16:09:29.371Z,31.27
2018-07-24T16:11:58.726Z,28.91
2018-07-24T16:14:28.079Z,29.06
2018-07-24T16:16:57.444Z,29.67
2018-07-24T16:19:26.796Z,30.44
2018-07-24T16:21:56.170Z,30.68
2018-07-24T16:24:25.295Z,30.93
2018-07-24T16:26:54.648Z,29.35
2018-07-24T16:29:23.996Z,30.96
2018-07-24T16:31:53.362Z,31.07
2018-07-24T16:34:22.727Z,31.08
2018-07-24T16:36:52.088Z,31.37
2018-07-24T16:39:21.458Z,30.72
2018-07-24T16:41:50.819Z,32.00
2018-07-24T16:44:20.600Z,32.08
2018-07-24T16:46:49.972Z,31.60
2018-07-24T16:49:19.451Z,30.47
2018-07-24T16:51:48.903Z,31.15
2018-07-24T16:54:19.126Z,31.93
2018-07-24T16:56:48.480Z,31.78
2018-07-24T16:59:17.858Z,32.25
2018-07-24T17:01:47.211Z,32.02
2018-07-24T17:04:16.307Z,32.39
2018-07-24T17:06:45.410Z,32.79
2018-07-24T17:09:14.512Z,31.90
2018-07-24T17:11:43.862Z,32.50
2018-07-24T17:14:13.191Z,32.56
2018-07-24T17:16:42.541Z,31.82
2018-07-24T17:19:11.898Z,31.47
2018-07-24T17:21:41.240Z,31.88
2018-07-24T17:24:10.585Z,32.04
2018-07-24T17:26:40.042Z,32.95
2018-07-24T17:29:09.304Z,32.47
2018-07-24T17:31:38.420Z,32.23
2018-07-24T17:34:08.619Z,32.24
2018-07-24T17:36:37.963Z,32.00
2018-07-24T17:39:09.504Z,32.07
2018-07-24T17:41:38.881Z,32.34
2018-07-24T17:44:08.762Z,32.84
2018-07-24T17:46:38.095Z,32.88
2018-07-24T17:49:07.647Z,34.30
2018-07-24T17:51:36.984Z,34.12
2018-07-24T17:54:06.326Z,34.49
2018-07-24T17:56:35.665Z,34.20
2018-07-24T17:59:05.031Z,34.28
2018-07-24T18:01:34.381Z,34.68
2018-07-24T18:04:03.723Z,35.25
2018-07-24T18:06:33.073Z,35.55
2018-07-24T18:09:02.435Z,36.32
2018-07-24T18:11:31.787Z,39.29
2018-07-24T18:14:01.139Z,42.24
2018-07-24T18:16:30.523Z,41.68
2018-07-24T18:18:59.877Z,42.44
2018-07-24T18:21:29.243Z,42.92
2018-07-24T18:23:58.590Z,43.04
2018-07-24T18:26:27.929Z,43.77
2018-07-24T18:28:57.280Z,43.74
2018-07-24T18:31:26.826Z,44.81
2018-07-24T18:33:55.939Z,46.65
2018-07-24T18:36:25.270Z,46.79
2018-07-24T18:38:54.610Z,49.35
2018-07-24T18:41:23.942Z,49.96
2018-07-24T18:43:53.282Z,50.38
2018-07-24T18:46:22.664Z,50.92
2018-07-24T18:48:51.998Z,52.27
2018-07-24T18:58:12.142Z,52.01
2018-07-24T19:00:41.478Z,52.94
2018-07-24T19:03:10.807Z,53.41
2018-07-24T19:05:40.158Z,54.64
2018-07-24T19:08:09.483Z,55.26
2018-07-24T19:10:38.837Z,55.67
2018-07-24T19:13:08.262Z,56.36
2018-07-24T19:15:37.675Z,57.69
2018-07-24T19:18:07.031Z,59.06
2018-07-24T19:20:36.392Z,59.72
2018-07-24T19:23:05.734Z,60.34
2018-07-24T19:25:35.071Z,60.53
2018-07-24T19:28:04.450Z,60.30
2018-07-24T19:30:33.803Z,59.76
2018-07-24T19:33:03.131Z,61.30
2018-07-24T19:35:32.472Z,60.58
2018-07-24T19:38:01.551Z,60.84
2018-07-24T19:40:30.894Z,61.05
2018-07-24T19:43:00.243Z,60.82
2018-07-24T19:45:29.600Z,60.96
2018-07-24T19:47:59.027Z,62.91
2018-07-24T19:50:28.362Z,63.44
2018-07-24T19:52:57.739Z,63.40
2018-07-24T19:55:27.119Z,63.09
2018-07-24T19:57:56.487Z,64.02
2018-07-24T20:00:25.587Z,63.75
2018-07-24T20:02:54.913Z,62.54
2018-07-24T20:05:24.274Z,63.99
2018-07-24T20:07:53.425Z,64.83
2018-07-24T20:10:22.766Z,63.70
2018-07-24T20:12:51.839Z,63.96
2018-07-24T20:15:21.591Z,64.44
2018-07-24T20:17:50.917Z,63.08
2018-07-24T20:20:20.263Z,64.73
2018-07-24T20:22:49.679Z,64.26
2018-07-24T20:25:18.937Z,66.24
2018-07-24T20:27:48.272Z,65.85
2018-07-24T20:30:17.608Z,65.89
2018-07-24T20:32:46.938Z,65.15
2018-07-24T20:35:16.320Z,65.62
2018-07-24T20:37:45.374Z,65.28
2018-07-24T20:40:14.458Z,65.54
2018-07-24T20:42:43.835Z,65.20
2018-07-24T20:45:13.155Z,65.23
2018-07-24T20:47:42.487Z,66.49
2018-07-24T20:50:11.828Z,65.75
2018-07-24T20:52:41.162Z,66.17
2018-07-24T20:55:10.531Z,67.72
2018-07-24T20:57:39.881Z,66.62
2018-07-24T21:00:09.223Z,66.74
2018-07-24T21:02:38.559Z,66.24
2018-07-24T21:05:07.892Z,68.11
2018-07-24T21:07:37.233Z,67.82
2018-07-24T21:10:10.648Z,68.51
2018-07-24T21:12:39.979Z,69.37
2018-07-24T21:15:09.062Z,70.83
2018-07-24T21:17:38.407Z,70.63
2018-07-24T21:20:08.686Z,70.91
2018-07-24T21:22:37.773Z,71.25
2018-07-24T21:25:07.139Z,70.99
2018-07-24T21:27:36.482Z,70.17
2018-07-24T21:30:07.440Z,71.32
2018-07-24T21:32:36.766Z,72.44
2018-07-24T21:35:06.144Z,70.85
2018-07-24T21:37:35.480Z,71.76
2018-07-24T21:40:05.084Z,72.04
2018-07-24T21:42:34.427Z,72.04
2018-07-24T21:45:03.739Z,71.74
2018-07-24T21:47:32.833Z,72.04
2018-07-24T21:50:01.922Z,71.86
2018-07-24T21:52:31.248Z,72.19
2018-07-24T21:55:00.612Z,71.67
2018-07-24T21:57:29.934Z,73.80
2018-07-24T21:59:59.009Z,73.27
2018-07-24T22:02:28.334Z,72.25
2018-07-24T22:04:57.625Z,71.95
2018-07-24T22:07:26.690Z,72.04
2018-07-24T22:09:56.036Z,73.07
2018-07-24T22:12:25.348Z,72.75
2018-07-24T22:14:54.672Z,72.31
2018-07-24T22:17:23.986Z,72.86
2018-07-24T22:19:53.280Z,73.01
2018-07-24T22:22:22.588Z,72.85
2018-07-24T22:24:51.878Z,73.13
2018-07-24T22:27:21.182Z,73.26
2018-07-24T22:29:50.491Z,74.04
2018-07-24T22:32:19.788Z,74.18
2018-07-24T22:34:49.092Z,74.89
2018-07-24T22:37:18.404Z,74.34
2018-07-24T22:39:47.703Z,74.47
2018-07-24T22:42:17.006Z,75.69
2018-07-24T22:44:46.312Z,74.19
2018-07-24T22:47:15.636Z,73.91
2018-07-24T22:49:44.944Z,73.34
2018-07-24T22:52:14.231Z,73.76
2018-07-24T22:54:43.534Z,73.67
2018-07-24T22:57:12.835Z,74.77
2018-07-24T22:59:42.141Z,75.64
2018-07-24T23:02:11.582Z,75.90
2018-07-24T23:04:40.922Z,74.85
2018-07-24T23:07:10.002Z,74.78
2018-07-24T23:09:39.344Z,74.44
2018-07-24T23:12:09.063Z,73.65
2018-07-24T23:14:38.444Z,73.62
2018-07-24T23:17:07.774Z,73.84
2018-07-24T23:19:38.130Z,73.70
2018-07-24T23:22:07.474Z,73.82
2018-07-24T23:24:36.799Z,74.57
2018-07-24T23:27:06.113Z,74.75
2018-07-24T23:29:35.455Z,75.04
2018-07-24T23:32:05.117Z,75.59
2018-07-24T23:34:34.434Z,76.36
2018-07-24T23:37:03.777Z,76.47
2018-07-24T23:39:33.106Z,76.99
2018-07-24T23:42:02.430Z,76.90
2018-07-24T23:44:31.768Z,77.09
2018-07-24T23:47:00.843Z,77.47
2018-07-24T23:49:30.175Z,77.42
2018-07-24T23:51:59.582Z,77.02
2018-07-24T23:54:28.943Z,77.00
2018-07-24T23:56:58.284Z,77.44
2018-07-24T23:59:27.623Z,77.44
